sensor_id;sensor_type;location;lat;lon;timestamp;P1;durP1;ratioP1;P2;durP2;ratioP2
32196;SDS011;18697;42.770;23.400;2023-02-01T00:02:25;17.88;;;11.20;;
32196;SDS011;18697;42.770;23.400;2023-02-01T00:04:50;27.00;;;15.85;;
32196;SDS011;18697;42.770;23.400;2023-02-01T00:07:15;32.45;;;20.80;;
32196;SDS011;18697;42.770;23.400;2023-02-01T00:09:41;34.90;;;19.35;;
32196;SDS011;18697;42.770;23.400;2023-02-01T00:12:06;26.42;;;15.38;;
32196;SDS011;18697;42.770;23.400;2023-02-01T00:14:31;22.38;;;13.13;;
32196;SDS011;18697;42.770;23.400;2023-02-01T00:17:03;21.83;;;13.65;;
32196;SDS011;18697;42.770;23.400;2023-02-01T00:19:30;25.73;;;13.80;;
32196;SDS011;18697;42.770;23.400;2023-02-01T00:21:55;24.33;;;13.35;;
32196;SDS011;18697;42.770;23.400;2023-02-01T00:24:21;21.08;;;12.80;;
32196;SDS011;18697;42.770;23.400;2023-02-01T00:26:46;20.70;;;12.75;;
32196;SDS011;18697;42.770;23.400;2023-02-01T00:29:12;22.67;;;13.80;;
32196;SDS011;18697;42.770;23.400;2023-02-01T00:31:40;24.63;;;13.48;;
32196;SDS011;18697;42.770;23.400;2023-02-01T00:34:06;24.70;;;11.82;;
32196;SDS011;18697;42.770;23.400;2023-02-01T00:36:33;23.65;;;14.18;;
32196;SDS011;18697;42.770;23.400;2023-02-01T00:38:59;20.10;;;12.00;;
32196;SDS011;18697;42.770;23.400;2023-02-01T00:41:24;19.05;;;11.60;;
32196;SDS011;18697;42.770;23.400;2023-02-01T00:43:50;18.48;;;10.85;;
32196;SDS011;18697;42.770;23.400;2023-02-01T00:46:16;16.02;;;10.35;;
32196;SDS011;18697;42.770;23.400;2023-02-01T00:48:43;15.07;;;8.98;;
32196;SDS011;18697;42.770;23.400;2023-02-01T00:51:10;13.45;;;8.48;;
32196;SDS011;18697;42.770;23.400;2023-02-01T00:53:37;16.23;;;8.52;;
32196;SDS011;18697;42.770;23.400;2023-02-01T00:56:03;10.63;;;8.02;;
32196;SDS011;18697;42.770;23.400;2023-02-01T00:58:30;10.57;;;8.43;;
32196;SDS011;18697;42.770;23.400;2023-02-01T01:01:03;8.25;;;7.40;;
32196;SDS011;18697;42.770;23.400;2023-02-01T01:03:31;9.25;;;7.82;;
32196;SDS011;18697;42.770;23.400;2023-02-01T01:05:58;11.82;;;8.07;;
32196;SDS011;18697;42.770;23.400;2023-02-01T01:08:24;12.88;;;8.80;;
32196;SDS011;18697;42.770;23.400;2023-02-01T01:10:50;9.15;;;8.07;;
32196;SDS011;18697;42.770;23.400;2023-02-01T01:13:15;10.48;;;9.07;;
32196;SDS011;18697;42.770;23.400;2023-02-01T01:15:40;9.82;;;8.77;;
32196;SDS011;18697;42.770;23.400;2023-02-01T01:18:07;7.85;;;7.15;;
32196;SDS011;18697;42.770;23.400;2023-02-01T01:20:36;11.45;;;8.13;;
32196;SDS011;18697;42.770;23.400;2023-02-01T01:23:03;8.70;;;6.68;;
32196;SDS011;18697;42.770;23.400;2023-02-01T01:25:29;13.48;;;7.50;;
32196;SDS011;18697;42.770;23.400;2023-02-01T01:27:55;11.73;;;7.00;;
32196;SDS011;18697;42.770;23.400;2023-02-01T01:30:20;10.02;;;6.70;;
32196;SDS011;18697;42.770;23.400;2023-02-01T01:32:46;11.48;;;7.03;;
32196;SDS011;18697;42.770;23.400;2023-02-01T01:35:11;12.25;;;6.53;;
32196;SDS011;18697;42.770;23.400;2023-02-01T01:37:37;9.50;;;7.07;;
32196;SDS011;18697;42.770;23.400;2023-02-01T01:40:03;9.60;;;6.95;;
32196;SDS011;18697;42.770;23.400;2023-02-01T01:42:30;10.32;;;7.53;;
32196;SDS011;18697;42.770;23.400;2023-02-01T01:44:59;13.93;;;7.53;;
32196;SDS011;18697;42.770;23.400;2023-02-01T01:47:33;9.88;;;7.43;;
32196;SDS011;18697;42.770;23.400;2023-02-01T01:50:05;11.63;;;6.75;;
32196;SDS011;18697;42.770;23.400;2023-02-01T01:52:33;12.02;;;7.18;;
32196;SDS011;18697;42.770;23.400;2023-02-01T01:55:00;9.93;;;6.80;;
32196;SDS011;18697;42.770;23.400;2023-02-01T01:57:28;9.40;;;7.45;;
32196;SDS011;18697;42.770;23.400;2023-02-01T02:00:03;10.82;;;7.57;;
32196;SDS011;18697;42.770;23.400;2023-02-01T02:02:32;10.05;;;6.53;;
32196;SDS011;18697;42.770;23.400;2023-02-01T02:04:59;11.25;;;6.93;;
32196;SDS011;18697;42.770;23.400;2023-02-01T02:07:26;9.13;;;6.53;;
32196;SDS011;18697;42.770;23.400;2023-02-01T02:09:56;8.48;;;6.75;;
32196;SDS011;18697;42.770;23.400;2023-02-01T02:12:22;8.73;;;7.25;;
32196;SDS011;18697;42.770;23.400;2023-02-01T02:14:47;12.50;;;7.25;;
32196;SDS011;18697;42.770;23.400;2023-02-01T02:17:23;7.53;;;6.70;;
32196;SDS011;18697;42.770;23.400;2023-02-01T02:28:13;9.52;;;6.82;;
32196;SDS011;18697;42.770;23.400;2023-02-01T02:45:09;9.55;;;6.30;;
32196;SDS011;18697;42.770;23.400;2023-02-01T02:50:52;7.28;;;6.47;;
32196;SDS011;18697;42.770;23.400;2023-02-01T02:56:41;14.23;;;8.05;;
32196;SDS011;18697;42.770;23.400;2023-02-01T02:59:26;15.95;;;10.25;;
32196;SDS011;18697;42.770;23.400;2023-02-01T03:02:11;9.05;;;6.65;;
32196;SDS011;18697;42.770;23.400;2023-02-01T03:04:57;11.07;;;9.10;;
32196;SDS011;18697;42.770;23.400;2023-02-01T03:13:18;11.57;;;6.50;;
32196;SDS011;18697;42.770;23.400;2023-02-01T03:21:35;10.63;;;7.07;;
32196;SDS011;18697;42.770;23.400;2023-02-01T03:26:48;12.35;;;7.25;;
32196;SDS011;18697;42.770;23.400;2023-02-01T03:29:20;12.73;;;6.72;;
32196;SDS011;18697;42.770;23.400;2023-02-01T03:31:48;8.30;;;6.78;;
32196;SDS011;18697;42.770;23.400;2023-02-01T03:34:14;8.95;;;6.88;;
32196;SDS011;18697;42.770;23.400;2023-02-01T03:39:22;10.35;;;6.68;;
32196;SDS011;18697;42.770;23.400;2023-02-01T03:42:02;9.27;;;6.40;;
32196;SDS011;18697;42.770;23.400;2023-02-01T03:47:15;10.20;;;6.47;;
32196;SDS011;18697;42.770;23.400;2023-02-01T03:50:04;10.43;;;6.75;;
32196;SDS011;18697;42.770;23.400;2023-02-01T03:52:36;13.93;;;8.70;;
32196;SDS011;18697;42.770;23.400;2023-02-01T03:55:06;26.45;;;11.68;;
32196;SDS011;18697;42.770;23.400;2023-02-01T03:57:34;30.58;;;13.90;;
32196;SDS011;18697;42.770;23.400;2023-02-01T04:00:24;24.42;;;13.30;;
32196;SDS011;18697;42.770;23.400;2023-02-01T04:02:51;11.77;;;7.93;;
32196;SDS011;18697;42.770;23.400;2023-02-01T04:05:17;9.98;;;7.47;;
32196;SDS011;18697;42.770;23.400;2023-02-01T04:07:43;11.00;;;6.78;;
32196;SDS011;18697;42.770;23.400;2023-02-01T04:10:09;34.60;;;12.55;;
32196;SDS011;18697;42.770;23.400;2023-02-01T04:12:35;25.27;;;13.05;;
32196;SDS011;18697;42.770;23.400;2023-02-01T04:15:01;10.40;;;6.38;;
32196;SDS011;18697;42.770;23.400;2023-02-01T04:17:28;9.05;;;6.53;;
32196;SDS011;18697;42.770;23.400;2023-02-01T04:19:53;9.43;;;6.55;;
32196;SDS011;18697;42.770;23.400;2023-02-01T04:22:19;12.68;;;7.13;;
32196;SDS011;18697;42.770;23.400;2023-02-01T04:24:44;11.48;;;7.93;;
32196;SDS011;18697;42.770;23.400;2023-02-01T04:27:09;9.68;;;6.82;;
32196;SDS011;18697;42.770;23.400;2023-02-01T04:29:35;12.23;;;8.18;;
32196;SDS011;18697;42.770;23.400;2023-02-01T04:32:00;8.98;;;6.60;;
32196;SDS011;18697;42.770;23.400;2023-02-01T04:34:26;9.05;;;6.95;;
32196;SDS011;18697;42.770;23.400;2023-02-01T04:36:51;8.75;;;7.60;;
32196;SDS011;18697;42.770;23.400;2023-02-01T04:39:17;10.30;;;7.18;;
32196;SDS011;18697;42.770;23.400;2023-02-01T04:41:42;14.10;;;9.68;;
32196;SDS011;18697;42.770;23.400;2023-02-01T04:44:18;8.85;;;6.13;;
32196;SDS011;18697;42.770;23.400;2023-02-01T04:46:44;6.00;;;4.68;;
32196;SDS011;18697;42.770;23.400;2023-02-01T04:49:10;10.68;;;6.20;;
32196;SDS011;18697;42.770;23.400;2023-02-01T04:51:37;7.72;;;5.55;;
32196;SDS011;18697;42.770;23.400;2023-02-01T04:54:02;8.95;;;5.72;;
32196;SDS011;18697;42.770;23.400;2023-02-01T04:56:28;9.95;;;6.13;;
32196;SDS011;18697;42.770;23.400;2023-02-01T04:58:53;10.60;;;5.80;;
32196;SDS011;18697;42.770;23.400;2023-02-01T05:01:18;9.60;;;5.82;;
32196;SDS011;18697;42.770;23.400;2023-02-01T05:03:44;6.90;;;4.97;;
32196;SDS011;18697;42.770;23.400;2023-02-01T05:06:09;7.20;;;5.38;;
32196;SDS011;18697;42.770;23.400;2023-02-01T05:08:35;9.15;;;6.43;;
32196;SDS011;18697;42.770;23.400;2023-02-01T05:11:00;8.32;;;6.78;;
32196;SDS011;18697;42.770;23.400;2023-02-01T05:13:28;7.88;;;6.05;;
32196;SDS011;18697;42.770;23.400;2023-02-01T05:16:12;11.00;;;6.60;;
32196;SDS011;18697;42.770;23.400;2023-02-01T05:18:38;9.85;;;6.90;;
32196;SDS011;18697;42.770;23.400;2023-02-01T05:21:03;9.20;;;6.43;;
32196;SDS011;18697;42.770;23.400;2023-02-01T05:23:29;12.88;;;6.90;;
32196;SDS011;18697;42.770;23.400;2023-02-01T05:25:58;12.50;;;6.60;;
32196;SDS011;18697;42.770;23.400;2023-02-01T05:28:25;8.52;;;5.70;;
32196;SDS011;18697;42.770;23.400;2023-02-01T05:30:51;9.40;;;6.20;;
32196;SDS011;18697;42.770;23.400;2023-02-01T05:33:17;8.57;;;6.55;;
32196;SDS011;18697;42.770;23.400;2023-02-01T05:35:42;10.40;;;6.60;;
32196;SDS011;18697;42.770;23.400;2023-02-01T05:38:07;9.93;;;7.47;;
32196;SDS011;18697;42.770;23.400;2023-02-01T05:40:33;10.27;;;7.30;;
32196;SDS011;18697;42.770;23.400;2023-02-01T05:42:58;11.77;;;6.95;;
32196;SDS011;18697;42.770;23.400;2023-02-01T05:45:23;9.35;;;6.47;;
32196;SDS011;18697;42.770;23.400;2023-02-01T05:47:49;9.73;;;6.45;;
32196;SDS011;18697;42.770;23.400;2023-02-01T05:50:15;14.68;;;6.40;;
32196;SDS011;18697;42.770;23.400;2023-02-01T05:52:41;12.85;;;5.63;;
32196;SDS011;18697;42.770;23.400;2023-02-01T05:55:07;11.77;;;6.22;;
32196;SDS011;18697;42.770;23.400;2023-02-01T05:57:32;9.15;;;5.82;;
32196;SDS011;18697;42.770;23.400;2023-02-01T05:59:58;13.32;;;6.30;;
32196;SDS011;18697;42.770;23.400;2023-02-01T06:02:23;11.15;;;6.53;;
32196;SDS011;18697;42.770;23.400;2023-02-01T06:04:49;10.23;;;6.53;;
32196;SDS011;18697;42.770;23.400;2023-02-01T06:07:15;8.88;;;6.10;;
32196;SDS011;18697;42.770;23.400;2023-02-01T06:09:40;11.00;;;6.65;;
32196;SDS011;18697;42.770;23.400;2023-02-01T06:12:05;9.02;;;6.10;;
32196;SDS011;18697;42.770;23.400;2023-02-01T06:14:31;10.70;;;6.43;;
32196;SDS011;18697;42.770;23.400;2023-02-01T06:16:56;9.98;;;5.70;;
32196;SDS011;18697;42.770;23.400;2023-02-01T06:19:22;7.80;;;4.88;;
32196;SDS011;18697;42.770;23.400;2023-02-01T06:21:48;11.13;;;5.88;;
32196;SDS011;18697;42.770;23.400;2023-02-01T06:24:14;12.95;;;6.10;;
32196;SDS011;18697;42.770;23.400;2023-02-01T06:26:39;10.48;;;6.68;;
32196;SDS011;18697;42.770;23.400;2023-02-01T06:29:05;9.95;;;4.97;;
32196;SDS011;18697;42.770;23.400;2023-02-01T06:31:32;12.63;;;6.00;;
32196;SDS011;18697;42.770;23.400;2023-02-01T06:33:58;9.85;;;5.13;;
32196;SDS011;18697;42.770;23.400;2023-02-01T06:36:23;7.90;;;5.60;;
32196;SDS011;18697;42.770;23.400;2023-02-01T06:38:49;9.77;;;5.70;;
32196;SDS011;18697;42.770;23.400;2023-02-01T06:41:14;9.02;;;5.75;;
32196;SDS011;18697;42.770;23.400;2023-02-01T06:43:39;11.02;;;6.13;;
32196;SDS011;18697;42.770;23.400;2023-02-01T06:46:06;9.98;;;6.07;;
32196;SDS011;18697;42.770;23.400;2023-02-01T06:48:34;14.18;;;5.80;;
32196;SDS011;18697;42.770;23.400;2023-02-01T06:51:00;8.05;;;5.78;;
32196;SDS011;18697;42.770;23.400;2023-02-01T06:53:25;9.85;;;5.70;;
32196;SDS011;18697;42.770;23.400;2023-02-01T06:56:01;13.27;;;5.85;;
32196;SDS011;18697;42.770;23.400;2023-02-01T07:00:53;11.60;;;5.30;;
32196;SDS011;18697;42.770;23.400;2023-02-01T07:03:19;7.43;;;5.05;;
32196;SDS011;18697;42.770;23.400;2023-02-01T07:05:44;13.45;;;5.70;;
32196;SDS011;18697;42.770;23.400;2023-02-01T07:08:10;10.75;;;5.88;;
32196;SDS011;18697;42.770;23.400;2023-02-01T07:10:35;9.23;;;5.55;;
32196;SDS011;18697;42.770;23.400;2023-02-01T07:13:00;12.07;;;5.63;;
32196;SDS011;18697;42.770;23.400;2023-02-01T07:15:26;11.02;;;5.03;;
32196;SDS011;18697;42.770;23.400;2023-02-01T07:17:53;9.15;;;5.63;;
32196;SDS011;18697;42.770;23.400;2023-02-01T07:20:20;7.68;;;5.15;;
32196;SDS011;18697;42.770;23.400;2023-02-01T07:22:45;5.68;;;5.05;;
32196;SDS011;18697;42.770;23.400;2023-02-01T07:25:11;6.20;;;4.63;;
32196;SDS011;18697;42.770;23.400;2023-02-01T07:27:36;8.77;;;4.82;;
32196;SDS011;18697;42.770;23.400;2023-02-01T07:30:03;7.30;;;5.10;;
32196;SDS011;18697;42.770;23.400;2023-02-01T07:32:30;8.52;;;4.65;;
32196;SDS011;18697;42.770;23.400;2023-02-01T07:34:56;5.07;;;4.53;;
32196;SDS011;18697;42.770;23.400;2023-02-01T07:37:22;7.63;;;4.53;;
32196;SDS011;18697;42.770;23.400;2023-02-01T07:39:49;9.70;;;5.20;;
32196;SDS011;18697;42.770;23.400;2023-02-01T07:42:17;9.63;;;4.97;;
32196;SDS011;18697;42.770;23.400;2023-02-01T07:44:42;8.65;;;5.05;;
32196;SDS011;18697;42.770;23.400;2023-02-01T07:47:08;7.95;;;4.97;;
32196;SDS011;18697;42.770;23.400;2023-02-01T07:49:33;10.25;;;4.72;;
32196;SDS011;18697;42.770;23.400;2023-02-01T07:51:58;11.35;;;5.25;;
32196;SDS011;18697;42.770;23.400;2023-02-01T07:54:24;10.40;;;5.55;;
32196;SDS011;18697;42.770;23.400;2023-02-01T07:56:49;11.90;;;5.50;;
32196;SDS011;18697;42.770;23.400;2023-02-01T07:59:15;14.35;;;6.93;;
32196;SDS011;18697;42.770;23.400;2023-02-01T08:01:41;8.68;;;5.10;;
32196;SDS011;18697;42.770;23.400;2023-02-01T08:04:07;7.20;;;4.47;;
32196;SDS011;18697;42.770;23.400;2023-02-01T08:06:35;6.95;;;5.05;;
32196;SDS011;18697;42.770;23.400;2023-02-01T08:12:01;7.63;;;4.25;;
32196;SDS011;18697;42.770;23.400;2023-02-01T08:14:26;6.65;;;3.92;;
32196;SDS011;18697;42.770;23.400;2023-02-01T08:16:51;7.85;;;4.43;;
32196;SDS011;18697;42.770;23.400;2023-02-01T08:19:17;9.15;;;4.53;;
32196;SDS011;18697;42.770;23.400;2023-02-01T08:21:42;6.18;;;3.92;;
32196;SDS011;18697;42.770;23.400;2023-02-01T08:24:08;5.80;;;4.10;;
32196;SDS011;18697;42.770;23.400;2023-02-01T08:26:34;8.25;;;4.25;;
32196;SDS011;18697;42.770;23.400;2023-02-01T08:29:01;6.80;;;4.18;;
32196;SDS011;18697;42.770;23.400;2023-02-01T08:31:29;8.52;;;4.00;;
32196;SDS011;18697;42.770;23.400;2023-02-01T08:33:56;4.78;;;3.75;;
32196;SDS011;18697;42.770;23.400;2023-02-01T08:36:24;8.13;;;3.55;;
32196;SDS011;18697;42.770;23.400;2023-02-01T08:38:50;4.85;;;3.22;;
32196;SDS011;18697;42.770;23.400;2023-02-01T08:41:18;6.65;;;4.28;;
32196;SDS011;18697;42.770;23.400;2023-02-01T08:43:45;6.68;;;3.35;;
32196;SDS011;18697;42.770;23.400;2023-02-01T08:46:11;4.70;;;3.55;;
32196;SDS011;18697;42.770;23.400;2023-02-01T08:48:37;7.55;;;4.53;;
32196;SDS011;18697;42.770;23.400;2023-02-01T08:51:10;8.40;;;3.60;;
32196;SDS011;18697;42.770;23.400;2023-02-01T08:53:37;7.05;;;4.40;;
32196;SDS011;18697;42.770;23.400;2023-02-01T08:56:06;4.90;;;3.38;;
32196;SDS011;18697;42.770;23.400;2023-02-01T08:58:32;8.65;;;3.53;;
32196;SDS011;18697;42.770;23.400;2023-02-01T09:01:02;6.60;;;3.72;;
32196;SDS011;18697;42.770;23.400;2023-02-01T09:03:31;8.40;;;4.10;;
32196;SDS011;18697;42.770;23.400;2023-02-01T09:06:04;8.18;;;3.88;;
32196;SDS011;18697;42.770;23.400;2023-02-01T09:08:32;4.57;;;3.35;;
32196;SDS011;18697;42.770;23.400;2023-02-01T09:10:58;7.40;;;4.03;;
32196;SDS011;18697;42.770;23.400;2023-02-01T09:13:25;6.60;;;4.63;;
32196;SDS011;18697;42.770;23.400;2023-02-01T09:15:51;6.15;;;4.30;;
32196;SDS011;18697;42.770;23.400;2023-02-01T09:18:17;7.18;;;4.65;;
32196;SDS011;18697;42.770;23.400;2023-02-01T09:20:42;8.25;;;4.45;;
32196;SDS011;18697;42.770;23.400;2023-02-01T09:23:07;5.55;;;3.90;;
32196;SDS011;18697;42.770;23.400;2023-02-01T09:25:33;7.93;;;4.10;;
32196;SDS011;18697;42.770;23.400;2023-02-01T09:27:58;7.57;;;3.13;;
32196;SDS011;18697;42.770;23.400;2023-02-01T09:30:23;3.20;;;2.88;;
32196;SDS011;18697;42.770;23.400;2023-02-01T09:32:49;6.03;;;3.33;;
32196;SDS011;18697;42.770;23.400;2023-02-01T09:35:14;3.28;;;2.97;;
32196;SDS011;18697;42.770;23.400;2023-02-01T09:37:40;3.15;;;2.80;;
32196;SDS011;18697;42.770;23.400;2023-02-01T09:40:05;6.78;;;3.42;;
32196;SDS011;18697;42.770;23.400;2023-02-01T09:45:28;6.35;;;3.50;;
32196;SDS011;18697;42.770;23.400;2023-02-01T09:47:55;8.02;;;3.20;;
32196;SDS011;18697;42.770;23.400;2023-02-01T09:50:44;9.95;;;3.00;;
32196;SDS011;18697;42.770;23.400;2023-02-01T09:53:18;6.18;;;3.25;;
32196;SDS011;18697;42.770;23.400;2023-02-01T09:55:48;5.53;;;2.90;;
32196;SDS011;18697;42.770;23.400;2023-02-01T09:58:25;8.15;;;2.40;;
32196;SDS011;18697;42.770;23.400;2023-02-01T10:00:58;3.55;;;2.70;;
32196;SDS011;18697;42.770;23.400;2023-02-01T10:03:30;4.25;;;3.58;;
32196;SDS011;18697;42.770;23.400;2023-02-01T10:15:09;7.82;;;3.00;;
32196;SDS011;18697;42.770;23.400;2023-02-01T10:20:24;7.65;;;2.78;;
32196;SDS011;18697;42.770;23.400;2023-02-01T10:23:16;5.55;;;2.63;;
32196;SDS011;18697;42.770;23.400;2023-02-01T10:25:54;6.72;;;2.75;;
32196;SDS011;18697;42.770;23.400;2023-02-01T10:28:21;6.50;;;2.05;;
32196;SDS011;18697;42.770;23.400;2023-02-01T10:30:49;2.45;;;2.15;;
32196;SDS011;18697;42.770;23.400;2023-02-01T10:33:26;7.30;;;2.10;;
32196;SDS011;18697;42.770;23.400;2023-02-01T10:36:04;4.35;;;2.05;;
32196;SDS011;18697;42.770;23.400;2023-02-01T10:38:41;6.03;;;2.97;;
32196;SDS011;18697;42.770;23.400;2023-02-01T10:41:15;2.72;;;1.90;;
32196;SDS011;18697;42.770;23.400;2023-02-01T10:43:44;7.80;;;2.20;;
32196;SDS011;18697;42.770;23.400;2023-02-01T10:46:13;3.08;;;1.98;;
32196;SDS011;18697;42.770;23.400;2023-02-01T10:48:38;4.13;;;1.98;;
32196;SDS011;18697;42.770;23.400;2023-02-01T10:51:06;8.10;;;2.60;;
32196;SDS011;18697;42.770;23.400;2023-02-01T10:53:48;7.53;;;2.10;;
32196;SDS011;18697;42.770;23.400;2023-02-01T10:56:21;2.88;;;2.00;;
32196;SDS011;18697;42.770;23.400;2023-02-01T10:58:52;3.88;;;1.98;;
32196;SDS011;18697;42.770;23.400;2023-02-01T11:01:36;7.43;;;2.15;;
32196;SDS011;18697;42.770;23.400;2023-02-01T11:04:14;2.55;;;2.15;;
32196;SDS011;18697;42.770;23.400;2023-02-01T11:06:44;5.03;;;2.10;;
32196;SDS011;18697;42.770;23.400;2023-02-01T11:14:15;5.82;;;2.40;;
32196;SDS011;18697;42.770;23.400;2023-02-01T11:16:48;3.22;;;2.00;;
32196;SDS011;18697;42.770;23.400;2023-02-01T11:19:15;4.03;;;2.38;;
32196;SDS011;18697;42.770;23.400;2023-02-01T11:21:42;4.35;;;2.22;;
32196;SDS011;18697;42.770;23.400;2023-02-01T11:24:21;2.60;;;1.95;;
32196;SDS011;18697;42.770;23.400;2023-02-01T11:26:50;20.15;;;8.07;;
32196;SDS011;18697;42.770;23.400;2023-02-01T11:29:18;10.73;;;5.38;;
32196;SDS011;18697;42.770;23.400;2023-02-01T11:31:47;8.35;;;2.78;;
32196;SDS011;18697;42.770;23.400;2023-02-01T11:34:23;3.95;;;2.13;;
32196;SDS011;18697;42.770;23.400;2023-02-01T11:36:52;10.60;;;4.45;;
32196;SDS011;18697;42.770;23.400;2023-02-01T11:39:30;7.13;;;2.25;;
32196;SDS011;18697;42.770;23.400;2023-02-01T11:44:32;2.92;;;2.30;;
32196;SDS011;18697;42.770;23.400;2023-02-01T11:49:50;5.40;;;4.03;;
32196;SDS011;18697;42.770;23.400;2023-02-01T11:52:52;4.38;;;2.80;;
32196;SDS011;18697;42.770;23.400;2023-02-01T11:55:52;4.13;;;2.20;;
32196;SDS011;18697;42.770;23.400;2023-02-01T12:03:54;2.70;;;2.30;;
32196;SDS011;18697;42.770;23.400;2023-02-01T12:06:55;4.05;;;2.05;;
32196;SDS011;18697;42.770;23.400;2023-02-01T12:14:45;3.63;;;2.20;;
32196;SDS011;18697;42.770;23.400;2023-02-01T12:17:29;4.60;;;2.50;;
32196;SDS011;18697;42.770;23.400;2023-02-01T12:31:45;5.10;;;2.70;;
32196;SDS011;18697;42.770;23.400;2023-02-01T12:42:22;6.30;;;3.50;;
32196;SDS011;18697;42.770;23.400;2023-02-01T12:44:53;4.97;;;2.78;;
32196;SDS011;18697;42.770;23.400;2023-02-01T12:47:28;4.55;;;2.63;;
32196;SDS011;18697;42.770;23.400;2023-02-01T12:52:44;3.72;;;2.20;;
32196;SDS011;18697;42.770;23.400;2023-02-01T12:58:12;3.97;;;2.90;;
32196;SDS011;18697;42.770;23.400;2023-02-01T13:00:45;2.95;;;2.20;;
32196;SDS011;18697;42.770;23.400;2023-02-01T13:05:56;3.67;;;2.05;;
32196;SDS011;18697;42.770;23.400;2023-02-01T13:11:36;5.18;;;2.65;;
32196;SDS011;18697;42.770;23.400;2023-02-01T13:17:09;2.13;;;1.98;;
32196;SDS011;18697;42.770;23.400;2023-02-01T13:19:43;3.35;;;2.30;;
32196;SDS011;18697;42.770;23.400;2023-02-01T13:25:57;2.53;;;2.08;;
32196;SDS011;18697;42.770;23.400;2023-02-01T13:27:58;4.50;;;2.30;;
32196;SDS011;18697;42.770;23.400;2023-02-01T13:30:44;2.88;;;2.30;;
32196;SDS011;18697;42.770;23.400;2023-02-01T13:41:55;5.22;;;2.35;;
32196;SDS011;18697;42.770;23.400;2023-02-01T13:44:34;5.15;;;2.13;;
32196;SDS011;18697;42.770;23.400;2023-02-01T13:49:48;4.47;;;2.67;;
32196;SDS011;18697;42.770;23.400;2023-02-01T13:52:25;4.47;;;2.30;;
32196;SDS011;18697;42.770;23.400;2023-02-01T13:55:00;4.78;;;2.35;;
32196;SDS011;18697;42.770;23.400;2023-02-01T13:57:36;6.75;;;2.83;;
32196;SDS011;18697;42.770;23.400;2023-02-01T14:10:47;5.22;;;2.70;;
32196;SDS011;18697;42.770;23.400;2023-02-01T14:24:16;4.20;;;2.42;;
32196;SDS011;18697;42.770;23.400;2023-02-01T14:29:01;4.15;;;2.65;;
32196;SDS011;18697;42.770;23.400;2023-02-01T14:37:08;4.22;;;2.78;;
32196;SDS011;18697;42.770;23.400;2023-02-01T14:42:04;2.65;;;2.00;;
32196;SDS011;18697;42.770;23.400;2023-02-01T14:44:52;5.47;;;2.63;;
32196;SDS011;18697;42.770;23.400;2023-02-01T14:49:49;2.92;;;1.88;;
32196;SDS011;18697;42.770;23.400;2023-02-01T14:52:36;5.22;;;2.22;;
32196;SDS011;18697;42.770;23.400;2023-02-01T14:55:27;3.15;;;2.50;;
32196;SDS011;18697;42.770;23.400;2023-02-01T14:58:00;5.68;;;3.20;;
32196;SDS011;18697;42.770;23.400;2023-02-01T15:00:30;5.72;;;2.70;;
32196;SDS011;18697;42.770;23.400;2023-02-01T15:03:12;4.32;;;2.60;;
32196;SDS011;18697;42.770;23.400;2023-02-01T15:05:59;4.72;;;2.58;;
32196;SDS011;18697;42.770;23.400;2023-02-01T15:08:31;5.28;;;2.80;;
32196;SDS011;18697;42.770;23.400;2023-02-01T15:11:01;6.10;;;3.38;;
32196;SDS011;18697;42.770;23.400;2023-02-01T15:13:31;5.75;;;3.50;;
32196;SDS011;18697;42.770;23.400;2023-02-01T15:16:13;6.32;;;3.60;;
32196;SDS011;18697;42.770;23.400;2023-02-01T15:18:40;5.60;;;3.55;;
32196;SDS011;18697;42.770;23.400;2023-02-01T15:21:13;6.38;;;3.33;;
32196;SDS011;18697;42.770;23.400;2023-02-01T15:23:43;5.20;;;3.63;;
32196;SDS011;18697;42.770;23.400;2023-02-01T15:26:23;8.77;;;3.45;;
32196;SDS011;18697;42.770;23.400;2023-02-01T15:28:50;4.72;;;3.50;;
32196;SDS011;18697;42.770;23.400;2023-02-01T15:31:30;6.45;;;3.90;;
32196;SDS011;18697;42.770;23.400;2023-02-01T15:34:03;14.07;;;8.70;;
32196;SDS011;18697;42.770;23.400;2023-02-01T15:36:28;27.92;;;16.02;;
32196;SDS011;18697;42.770;23.400;2023-02-01T15:41:37;56.22;;;29.92;;
32196;SDS011;18697;42.770;23.400;2023-02-01T15:44:05;72.28;;;39.97;;
32196;SDS011;18697;42.770;23.400;2023-02-01T15:46:40;36.63;;;19.88;;
32196;SDS011;18697;42.770;23.400;2023-02-01T15:51:45;25.05;;;13.10;;
32196;SDS011;18697;42.770;23.400;2023-02-01T15:54:15;33.10;;;13.45;;
32196;SDS011;18697;42.770;23.400;2023-02-01T15:56:46;13.70;;;8.95;;
32196;SDS011;18697;42.770;23.400;2023-02-01T15:59:19;27.27;;;15.18;;
32196;SDS011;18697;42.770;23.400;2023-02-01T16:01:47;16.25;;;12.63;;
32196;SDS011;18697;42.770;23.400;2023-02-01T16:04:21;23.23;;;12.13;;
32196;SDS011;18697;42.770;23.400;2023-02-01T16:06:50;16.33;;;9.38;;
32196;SDS011;18697;42.770;23.400;2023-02-01T16:09:18;14.95;;;9.75;;
32196;SDS011;18697;42.770;23.400;2023-02-01T16:11:52;32.45;;;15.20;;
32196;SDS011;18697;42.770;23.400;2023-02-01T16:14:21;36.70;;;19.80;;
32196;SDS011;18697;42.770;23.400;2023-02-01T16:16:46;52.42;;;26.08;;
32196;SDS011;18697;42.770;23.400;2023-02-01T16:19:12;56.65;;;27.58;;
32196;SDS011;18697;42.770;23.400;2023-02-01T16:21:38;76.18;;;34.78;;
32196;SDS011;18697;42.770;23.400;2023-02-01T16:24:03;90.68;;;37.20;;
32196;SDS011;18697;42.770;23.400;2023-02-01T16:26:30;125.30;;;49.70;;
32196;SDS011;18697;42.770;23.400;2023-02-01T16:28:56;100.22;;;38.47;;
32196;SDS011;18697;42.770;23.400;2023-02-01T16:31:25;95.70;;;34.15;;
32196;SDS011;18697;42.770;23.400;2023-02-01T16:33:53;119.28;;;45.50;;
32196;SDS011;18697;42.770;23.400;2023-02-01T16:36:19;103.43;;;42.47;;
32196;SDS011;18697;42.770;23.400;2023-02-01T16:38:45;154.30;;;59.10;;
32196;SDS011;18697;42.770;23.400;2023-02-01T16:41:13;123.40;;;45.85;;
32196;SDS011;18697;42.770;23.400;2023-02-01T16:43:39;118.35;;;46.78;;
32196;SDS011;18697;42.770;23.400;2023-02-01T16:46:05;94.90;;;38.35;;
32196;SDS011;18697;42.770;23.400;2023-02-01T16:48:38;133.77;;;51.92;;
32196;SDS011;18697;42.770;23.400;2023-02-01T16:51:10;155.98;;;67.53;;
32196;SDS011;18697;42.770;23.400;2023-02-01T16:53:38;428.40;;;165.35;;
32196;SDS011;18697;42.770;23.400;2023-02-01T16:58:37;91.57;;;48.10;;
32196;SDS011;18697;42.770;23.400;2023-02-01T17:01:06;76.72;;;37.83;;
32196;SDS011;18697;42.770;23.400;2023-02-01T17:03:31;88.45;;;37.55;;
32196;SDS011;18697;42.770;23.400;2023-02-01T17:05:57;95.05;;;41.00;;
32196;SDS011;18697;42.770;23.400;2023-02-01T17:08:34;80.05;;;33.33;;
32196;SDS011;18697;42.770;23.400;2023-02-01T17:11:01;85.32;;;37.10;;
32196;SDS011;18697;42.770;23.400;2023-02-01T17:13:28;105.15;;;40.58;;
32196;SDS011;18697;42.770;23.400;2023-02-01T17:15:56;76.03;;;31.40;;
32196;SDS011;18697;42.770;23.400;2023-02-01T17:18:27;61.67;;;28.15;;
32196;SDS011;18697;42.770;23.400;2023-02-01T17:20:56;63.38;;;30.23;;
32196;SDS011;18697;42.770;23.400;2023-02-01T17:23:25;57.67;;;28.17;;
32196;SDS011;18697;42.770;23.400;2023-02-01T17:25:51;46.92;;;23.60;;
32196;SDS011;18697;42.770;23.400;2023-02-01T17:28:18;41.72;;;19.23;;
32196;SDS011;18697;42.770;23.400;2023-02-01T17:30:44;34.83;;;16.17;;
32196;SDS011;18697;42.770;23.400;2023-02-01T17:33:20;94.95;;;44.85;;
32196;SDS011;18697;42.770;23.400;2023-02-01T17:35:48;94.22;;;50.90;;
32196;SDS011;18697;42.770;23.400;2023-02-01T17:38:14;67.88;;;38.35;;
32196;SDS011;18697;42.770;23.400;2023-02-01T17:40:42;77.45;;;37.70;;